createdAt,value
2023-04-22T00:03:50.351Z,5.15
2023-04-22T00:08:54.562Z,5.35
2023-04-22T00:13:58.668Z,5.27
2023-04-22T00:19:02.201Z,5.49
2023-04-22T00:24:05.445Z,5.14
2023-04-22T00:29:09.091Z,5.66
2023-04-22T00:34:13.206Z,5.41
2023-04-22T00:39:16.954Z,5.29
2023-04-22T00:44:22.001Z,5.40
2023-04-22T00:49:28.356Z,5.62
2023-04-22T00:54:32.928Z,5.23
2023-04-22T00:59:37.421Z,5.41
2023-04-22T01:04:42.729Z,5.56
2023-04-22T01:09:46.743Z,5.03
2023-04-22T01:14:50.562Z,5.29
2023-04-22T01:19:55.975Z,5.24
2023-04-22T01:24:59.510Z,5.21
2023-04-22T01:30:03.410Z,5.29
2023-04-22T01:35:09.207Z,5.40
2023-04-22T01:40:14.847Z,5.18
2023-04-22T01:45:19.410Z,4.94
2023-04-22T01:50:23.771Z,5.23
2023-04-22T01:55:27.332Z,5.44
2023-04-22T02:00:31.044Z,5.77
2023-04-22T02:05:34.668Z,5.37
2023-04-22T02:10:38.065Z,5.36
2023-04-22T02:15:41.767Z,5.29
2023-04-22T02:20:45.203Z,5.50
2023-04-22T02:25:53.508Z,5.44
2023-04-22T02:30:57.414Z,5.49
2023-04-22T02:36:01.117Z,4.99
2023-04-22T02:41:04.502Z,5.46
2023-04-22T02:46:08.065Z,4.97
2023-04-22T02:51:12.177Z,5.02
2023-04-22T02:56:16.047Z,4.52
2023-04-22T03:01:19.909Z,5.31
2023-04-22T03:06:23.737Z,5.28
2023-04-22T03:11:27.724Z,4.93
2023-04-22T03:16:31.957Z,5.23
2023-04-22T03:21:40.100Z,5.34
2023-04-22T03:26:43.914Z,5.64
2023-04-22T03:31:47.727Z,5.01
2023-04-22T03:36:51.590Z,5.21
2023-04-22T03:41:56.338Z,4.96
2023-04-22T03:47:00.174Z,5.38
2023-04-22T03:52:10.858Z,4.76
2023-04-22T03:57:19.263Z,4.66
2023-04-22T04:02:23.942Z,4.78
2023-04-22T04:07:27.312Z,4.92
2023-04-22T04:12:31.337Z,5.14
2023-04-22T04:17:35.754Z,5.52
2023-04-22T04:22:41.659Z,5.56
2023-04-22T04:27:46.870Z,5.96
2023-04-22T04:32:51.688Z,5.87
2023-04-22T04:37:55.685Z,5.88
2023-04-22T04:43:02.709Z,6.25
2023-04-22T04:48:13.208Z,6.71
2023-04-22T04:53:20.797Z,6.98
2023-04-22T04:58:25.067Z,6.83
2023-04-22T05:03:43.093Z,7.05
2023-04-22T05:08:49.366Z,7.29
2023-04-22T05:13:53.123Z,7.97
2023-04-22T05:21:47.457Z,7.93
2023-04-22T05:26:55.802Z,8.49
2023-04-22T05:35:41.083Z,9.35
2023-04-22T05:40:46.050Z,9.51
2023-04-22T05:45:51.776Z,9.70
2023-04-22T05:50:57.474Z,10.02
2023-04-22T05:56:03.713Z,10.23
2023-04-22T06:01:17.943Z,10.52
2023-04-22T06:06:38.371Z,10.90
2023-04-22T06:11:42.136Z,11.20
2023-04-22T06:16:45.851Z,11.44
2023-04-22T06:21:56.786Z,13.34
2023-04-22T06:27:02.465Z,16.70
2023-04-22T06:32:06.873Z,17.87
2023-04-22T06:37:10.880Z,18.65
2023-04-22T06:42:15.718Z,19.98
2023-04-22T06:47:45.807Z,20.31
2023-04-22T06:52:52.045Z,20.05
2023-04-22T06:57:55.729Z,20.05
2023-04-22T07:02:59.848Z,20.54
2023-04-22T07:08:03.141Z,20.18
2023-04-22T07:13:07.126Z,20.30
2023-04-22T07:18:11.228Z,20.52
2023-04-22T07:23:14.986Z,20.69
2023-04-22T07:28:19.118Z,20.36
2023-04-22T07:33:22.865Z,21.18
2023-04-22T07:38:27.206Z,20.83
2023-04-22T07:43:30.886Z,21.35
2023-04-22T07:48:34.000Z,22.00
2023-04-22T07:53:37.540Z,21.98
2023-04-22T07:58:41.032Z,21.29
2023-04-22T08:03:44.976Z,21.14
2023-04-22T08:08:48.729Z,21.71
2023-04-22T08:13:52.538Z,21.96
2023-04-22T08:18:57.772Z,21.56
2023-04-22T08:24:01.359Z,20.16
2023-04-22T08:29:26.694Z,19.12
2023-04-22T08:34:29.806Z,18.29
2023-04-22T08:39:33.012Z,17.40
2023-04-22T08:44:38.244Z,17.14
2023-04-22T08:49:43.998Z,17.60
2023-04-22T08:54:47.199Z,18.95
2023-04-22T08:59:52.025Z,18.87
2023-04-22T09:04:55.814Z,20.15
2023-04-22T09:09:59.505Z,20.51
2023-04-22T09:15:03.827Z,20.90
2023-04-22T09:20:10.027Z,20.32
2023-04-22T09:25:36.349Z,20.42
2023-04-22T09:30:39.583Z,21.07
2023-04-22T09:35:45.175Z,21.59
2023-04-22T09:40:49.427Z,23.69
2023-04-22T09:45:53.777Z,22.70
2023-04-22T09:50:58.160Z,22.29
2023-04-22T09:56:05.354Z,22.27
2023-04-22T10:01:09.098Z,21.32
2023-04-22T10:06:12.792Z,22.32
2023-04-22T10:11:16.966Z,22.34
2023-04-22T10:16:26.052Z,23.09
2023-04-22T10:21:32.614Z,22.71
2023-04-22T10:26:56.960Z,22.88
2023-04-22T10:32:25.813Z,23.11
2023-04-22T10:37:28.870Z,23.77
2023-04-22T10:42:32.489Z,23.46
2023-04-22T10:47:37.786Z,23.22
2023-04-22T10:52:45.469Z,21.57
2023-04-22T10:57:51.401Z,22.04
2023-04-22T11:03:18.635Z,22.36
2023-04-22T11:08:24.110Z,22.79
2023-04-22T11:13:30.240Z,23.60
2023-04-22T11:18:33.824Z,23.27
2023-04-22T11:23:37.928Z,22.53
2023-04-22T11:28:48.793Z,21.69
2023-04-22T11:33:52.475Z,21.01
2023-04-22T11:38:57.556Z,19.82
2023-04-22T11:44:02.038Z,20.69
2023-04-22T11:49:34.858Z,20.62
2023-04-22T11:54:39.109Z,21.44
2023-04-22T11:59:43.430Z,20.82
2023-04-22T12:04:47.726Z,20.51
2023-04-22T12:09:55.177Z,21.19
2023-04-22T12:14:58.421Z,20.42
2023-04-22T12:20:01.610Z,19.93
2023-04-22T12:25:05.266Z,19.48
2023-04-22T12:30:09.247Z,19.29
2023-04-22T12:35:12.986Z,19.92
2023-04-22T12:40:17.057Z,20.88
2023-04-22T12:45:20.974Z,21.29
2023-04-22T12:50:24.253Z,20.00
2023-04-22T12:55:28.557Z,20.18
2023-04-22T13:00:32.107Z,19.97
2023-04-22T13:05:35.918Z,19.05
2023-04-22T13:10:39.014Z,18.46
2023-04-22T13:15:42.512Z,18.05
2023-04-22T13:20:46.599Z,17.70
2023-04-22T13:25:51.126Z,17.19
2023-04-22T13:30:55.615Z,17.24
2023-04-22T13:35:59.040Z,17.32
2023-04-22T13:41:03.448Z,17.25
2023-04-22T13:46:07.192Z,17.36
2023-04-22T13:51:11.090Z,17.49
2023-04-22T13:56:16.033Z,17.26
2023-04-22T14:01:21.459Z,17.11
2023-04-22T14:06:27.560Z,17.35
2023-04-22T14:11:31.536Z,17.49
2023-04-22T14:16:35.404Z,18.99
2023-04-22T14:21:38.711Z,18.95
2023-04-22T14:26:42.752Z,19.66
2023-04-22T14:31:46.931Z,19.44
2023-04-22T14:36:50.810Z,19.27
2023-04-22T14:41:54.833Z,18.50
2023-04-22T14:46:58.024Z,18.68
2023-04-22T14:52:01.801Z,18.76
2023-04-22T14:57:06.013Z,19.35
2023-04-22T15:02:16.119Z,19.57
2023-04-22T15:12:23.816Z,19.51
2023-04-22T15:17:27.720Z,18.61
2023-04-22T15:22:33.000Z,18.18
2023-04-22T15:27:36.613Z,18.11
2023-04-22T15:32:39.692Z,18.53
2023-04-22T15:37:43.651Z,17.87
2023-04-22T15:42:47.596Z,17.36
2023-04-22T15:47:52.641Z,17.78
2023-04-22T15:52:56.409Z,17.83
2023-04-22T15:57:59.961Z,17.94
2023-04-22T16:03:03.742Z,17.28
2023-04-22T16:08:07.358Z,16.70
2023-04-22T16:13:10.973Z,16.43
2023-04-22T16:18:15.078Z,15.97
2023-04-22T16:23:18.742Z,15.61
2023-04-22T16:28:22.882Z,15.20
2023-04-22T16:33:26.326Z,14.88
2023-04-22T16:38:29.500Z,14.50
2023-04-22T16:43:33.318Z,14.11
2023-04-22T16:48:37.415Z,13.79
2023-04-22T16:53:41.442Z,13.60
2023-04-22T16:58:45.373Z,13.51
2023-04-22T17:03:49.028Z,13.13
2023-04-22T17:08:52.795Z,12.85
2023-04-22T17:13:56.276Z,12.60
2023-04-22T17:19:00.039Z,12.37
2023-04-22T17:24:06.151Z,11.97
2023-04-22T17:29:09.676Z,11.68
2023-04-22T17:34:13.936Z,11.48
2023-04-22T17:39:17.344Z,11.07
2023-04-22T17:44:20.688Z,10.89
2023-04-22T17:49:24.313Z,10.78
2023-04-22T17:54:27.819Z,10.56
2023-04-22T17:59:31.946Z,10.59
2023-04-22T18:04:36.042Z,10.35
2023-04-22T18:09:39.918Z,10.05
2023-04-22T18:14:43.966Z,10.43
2023-04-22T18:19:51.322Z,10.19
2023-04-22T18:24:54.640Z,9.91
2023-04-22T18:29:58.051Z,9.87
2023-04-22T18:35:01.645Z,9.70
2023-04-22T18:40:06.688Z,9.55
2023-04-22T18:45:10.567Z,9.43
2023-04-22T18:50:14.696Z,9.27
2023-04-22T18:55:18.681Z,9.13
2023-04-22T19:00:22.315Z,8.95
2023-04-22T19:05:26.556Z,8.84
2023-04-22T19:10:30.171Z,8.87
2023-04-22T19:15:33.635Z,8.76
2023-04-22T19:20:37.214Z,8.64
2023-04-22T19:25:40.738Z,8.46
2023-04-22T19:30:44.543Z,8.34
2023-04-22T19:35:47.967Z,8.32
2023-04-22T19:40:51.602Z,8.17
2023-04-22T19:45:55.254Z,8.06
2023-04-22T19:51:00.047Z,7.91
2023-04-22T19:56:04.188Z,7.91
2023-04-22T20:01:07.931Z,7.89
2023-04-22T20:06:15.320Z,7.85
2023-04-22T20:11:19.310Z,7.78
2023-04-22T20:16:24.212Z,7.72
2023-04-22T20:21:29.572Z,7.72
2023-04-22T20:26:33.644Z,7.85
2023-04-22T20:31:37.453Z,7.74
2023-04-22T20:36:41.116Z,7.75
2023-04-22T20:41:46.056Z,7.64
2023-04-22T20:46:49.061Z,7.62
2023-04-22T20:51:53.382Z,7.51
2023-04-22T20:56:58.012Z,7.50
2023-04-22T21:02:04.493Z,7.44
2023-04-22T21:07:12.508Z,7.37
2023-04-22T21:12:17.702Z,7.25
2023-04-22T21:17:25.720Z,7.26
2023-04-22T21:22:30.036Z,7.09
2023-04-22T21:27:35.547Z,7.14
2023-04-22T21:32:40.943Z,7.05
2023-04-22T21:37:44.116Z,6.92
2023-04-22T21:42:48.889Z,6.90
2023-04-22T21:47:53.081Z,6.84
2023-04-22T21:52:57.948Z,6.80
2023-04-22T21:58:00.982Z,6.74
2023-04-22T22:03:04.709Z,6.71
2023-04-22T22:08:08.661Z,6.69
2023-04-22T22:13:12.179Z,6.58
2023-04-22T22:18:15.922Z,6.53
2023-04-22T22:23:21.674Z,6.54
2023-04-22T22:28:25.918Z,6.46
2023-04-22T22:33:30.063Z,6.48
2023-04-22T22:38:33.246Z,6.41
2023-04-22T22:43:37.400Z,6.37
2023-04-22T22:48:40.596Z,6.33
2023-04-22T22:53:44.384Z,6.39
2023-04-22T22:58:48.664Z,6.36
2023-04-22T23:03:52.770Z,6.40
2023-04-22T23:08:57.378Z,6.39
2023-04-22T23:14:02.878Z,6.37
2023-04-22T23:19:07.076Z,6.25
2023-04-22T23:24:12.802Z,6.15
2023-04-22T23:29:17.342Z,6.18
2023-04-22T23:34:24.382Z,6.08
2023-04-22T23:39:28.048Z,6.00
2023-04-22T23:44:31.781Z,5.98
2023-04-22T23:49:35.422Z,5.92
2023-04-22T23:54:40.398Z,5.86
2023-04-22T23:59:45.087Z,5.86
